createdAt,value
2022-10-17T00:02:02.758Z,87.98
2022-10-17T00:11:58.362Z,86.35
2022-10-17T00:15:42.053Z,85.52
2022-10-17T00:25:06.325Z,85.13
2022-10-17T00:38:54.179Z,85.07
2022-10-17T03:05:47.362Z,87.46
2022-10-17T04:16:58.326Z,86.30
2022-10-17T04:20:48.637Z,86.68
2022-10-17T04:23:57.847Z,86.71
2022-10-17T04:30:21.156Z,86.79
2022-10-17T04:44:22.529Z,87.08
2022-10-17T04:48:12.287Z,85.98
2022-10-17T05:04:33.399Z,86.52
2022-10-17T05:08:01.795Z,85.93
2022-10-17T05:11:34.771Z,86.27
2022-10-17T05:17:44.326Z,86.59
2022-10-17T05:20:34.789Z,85.75
2022-10-17T05:23:27.911Z,86.52
2022-10-17T05:36:46.555Z,87.27
2022-10-17T05:49:14.953Z,87.27
2022-10-17T05:57:31.100Z,86.97
2022-10-17T06:05:38.790Z,87.79
2022-10-17T06:19:20.019Z,86.92
2022-10-17T06:38:03.839Z,86.93
2022-10-17T06:48:54.819Z,86.24
2022-10-17T06:56:32.046Z,86.68
2022-10-17T08:34:40.827Z,87.67
2022-10-17T08:53:34.542Z,86.92
2022-10-17T09:08:41.893Z,86.08
2022-10-17T09:19:18.832Z,85.92
2022-10-17T09:22:53.445Z,85.79
2022-10-17T09:26:30.557Z,85.91
2022-10-17T09:34:27.474Z,84.69
2022-10-17T10:01:42.020Z,84.19
2022-10-17T10:04:59.744Z,84.31
2022-10-17T10:22:24.328Z,83.52
2022-10-17T10:26:27.497Z,83.83
2022-10-17T10:30:08.151Z,84.01
2022-10-17T10:52:17.107Z,82.36
2022-10-17T11:45:56.443Z,82.14
2022-10-17T12:02:20.855Z,80.65
2022-10-17T12:16:57.642Z,83.63
2022-10-17T12:23:43.765Z,83.96
2022-10-17T12:26:49.645Z,83.98
2022-10-17T12:30:09.289Z,84.48
2022-10-17T12:36:44.866Z,84.32
2022-10-17T12:39:17.535Z,84.28
2022-10-17T12:41:46.436Z,84.60
2022-10-17T12:44:19.926Z,84.60
2022-10-17T12:46:50.963Z,84.80
2022-10-17T12:49:45.481Z,84.67
2022-10-17T12:52:22.239Z,84.87
2022-10-17T12:55:14.889Z,84.94
2022-10-17T12:57:59.402Z,85.23
2022-10-17T13:00:36.191Z,84.96
2022-10-17T13:03:31.365Z,85.40
2022-10-17T13:06:06.340Z,84.91
2022-10-17T13:09:05.685Z,84.95
2022-10-17T13:11:35.744Z,84.85
2022-10-17T13:14:15.204Z,85.12
2022-10-17T13:17:27.562Z,85.36
2022-10-17T13:19:55.725Z,85.34
2022-10-17T13:22:29.186Z,85.37
2022-10-17T13:25:18.254Z,86.51
2022-10-17T13:31:04.984Z,87.39
2022-10-17T13:33:39.266Z,87.47
2022-10-17T13:36:19.624Z,86.92
2022-10-17T13:38:47.136Z,87.92
2022-10-17T13:44:27.601Z,87.93
2022-10-17T13:46:55.031Z,87.77
2022-10-17T13:49:44.242Z,87.73
2022-10-17T13:52:24.770Z,87.48
2022-10-17T13:54:54.233Z,87.70
2022-10-17T13:57:35.446Z,88.00
2022-10-17T14:00:11.396Z,89.06
2022-10-17T14:03:05.064Z,88.91
2022-10-17T14:05:33.653Z,88.69
2022-10-17T14:08:13.366Z,88.68
2022-10-17T14:10:43.900Z,88.41
2022-10-17T14:13:27.818Z,88.15
2022-10-17T14:15:56.939Z,88.59
2022-10-17T14:18:36.176Z,88.69
2022-10-17T14:24:15.717Z,87.62
2022-10-17T14:26:52.409Z,88.18
2022-10-17T14:35:41.236Z,88.60
2022-10-17T14:38:15.021Z,88.64
2022-10-17T14:40:50.658Z,88.30
2022-10-17T14:43:25.156Z,88.04
2022-10-17T14:45:53.018Z,87.74
2022-10-17T14:48:23.772Z,87.63
2022-10-17T14:51:11.504Z,87.94
2022-10-17T14:53:39.787Z,88.11
2022-10-17T14:56:53.039Z,88.17
2022-10-17T14:59:54.150Z,88.35
2022-10-17T15:02:25.296Z,89.09
2022-10-17T15:04:57.110Z,88.57
2022-10-17T15:10:28.339Z,88.48
2022-10-17T15:12:59.386Z,88.51
2022-10-17T15:15:43.419Z,88.73
2022-10-17T15:18:37.571Z,88.74
2022-10-17T15:21:33.715Z,88.58
2022-10-17T15:27:03.425Z,89.11
2022-10-17T15:29:31.007Z,88.98
2022-10-17T15:31:58.938Z,89.32
2022-10-17T15:34:31.988Z,89.15
2022-10-17T15:36:59.162Z,88.79
2022-10-17T15:39:27.021Z,89.30
2022-10-17T15:41:59.900Z,89.05
2022-10-17T15:44:27.089Z,89.35
2022-10-17T15:47:04.540Z,89.90
2022-10-17T15:50:02.323Z,89.90
2022-10-17T15:52:29.108Z,89.55
2022-10-17T15:54:59.556Z,89.68
2022-10-17T16:00:32.020Z,90.03
2022-10-17T16:02:58.961Z,89.64
2022-10-17T16:08:19.026Z,89.88
2022-10-17T16:10:47.013Z,89.60
2022-10-17T16:13:25.894Z,89.44
2022-10-17T16:15:53.025Z,89.65
2022-10-17T16:18:21.163Z,89.72
2022-10-17T16:20:54.033Z,89.48
2022-10-17T16:23:21.161Z,89.69
2022-10-17T16:25:53.969Z,89.19
2022-10-17T16:28:20.941Z,88.93
2022-10-17T16:30:54.294Z,89.69
2022-10-17T16:33:20.958Z,89.72
2022-10-17T16:35:49.389Z,89.83
2022-10-17T16:38:16.944Z,89.07
2022-10-17T16:40:45.082Z,89.70
2022-10-17T16:43:13.283Z,89.57
2022-10-17T16:45:41.383Z,89.57
2022-10-17T16:48:09.626Z,90.04
2022-10-17T16:50:39.631Z,89.52
2022-10-17T16:53:07.384Z,89.33
2022-10-17T16:56:06.941Z,89.59
2022-10-17T16:58:35.012Z,89.74
2022-10-17T17:01:11.110Z,89.35
2022-10-17T17:03:40.815Z,89.85
2022-10-17T17:06:12.940Z,90.12
2022-10-17T17:08:42.401Z,89.33
2022-10-17T17:11:17.373Z,89.48
2022-10-17T17:13:47.347Z,89.61
2022-10-17T17:16:17.887Z,89.42
2022-10-17T17:19:13.949Z,90.04
2022-10-17T17:22:16.552Z,89.97
2022-10-17T17:24:45.360Z,89.46
2022-10-17T17:27:13.686Z,89.22
2022-10-17T17:29:40.973Z,90.01
2022-10-17T17:32:10.594Z,90.05
2022-10-17T17:34:44.087Z,90.42
2022-10-17T17:37:16.369Z,89.84
2022-10-17T17:39:45.068Z,90.05
2022-10-17T17:42:13.007Z,90.36
2022-10-17T17:44:41.044Z,90.12
2022-10-17T17:47:08.974Z,89.97
2022-10-17T17:50:02.335Z,89.19
2022-10-17T17:52:29.865Z,89.35
2022-10-17T17:55:03.069Z,89.68
2022-10-17T17:57:59.058Z,89.11
2022-10-17T18:00:27.537Z,89.40
2022-10-17T18:03:00.025Z,89.88
2022-10-17T18:05:27.828Z,89.81
2022-10-17T18:07:55.081Z,89.83
2022-10-17T18:10:49.191Z,89.08
2022-10-17T18:13:17.033Z,89.25
2022-10-17T18:15:45.478Z,88.87
2022-10-17T18:18:13.246Z,88.81
2022-10-17T18:20:46.971Z,89.87
2022-10-17T18:23:16.217Z,89.49
2022-10-17T18:25:58.002Z,89.23
2022-10-17T18:28:25.191Z,88.75
2022-10-17T18:30:53.220Z,89.02
2022-10-17T18:33:21.041Z,89.42
2022-10-17T18:35:48.996Z,88.32
2022-10-17T18:38:16.993Z,88.85
2022-10-17T18:40:47.283Z,88.58
2022-10-17T18:43:24.282Z,89.17
2022-10-17T18:45:51.031Z,89.20
2022-10-17T18:48:19.012Z,89.27
2022-10-17T18:50:47.036Z,89.67
2022-10-17T18:53:18.972Z,90.21
2022-10-17T18:55:50.898Z,89.36
2022-10-17T18:58:21.249Z,89.23
2022-10-17T19:00:55.168Z,88.97
2022-10-17T19:03:23.007Z,89.61
2022-10-17T19:05:51.100Z,89.47
2022-10-17T19:08:18.977Z,90.97
2022-10-17T19:10:46.948Z,91.00
2022-10-17T19:13:19.335Z,91.40
2022-10-17T19:15:55.081Z,90.50
2022-10-17T19:18:23.011Z,91.03
2022-10-17T19:20:52.961Z,89.78
2022-10-17T19:23:20.993Z,90.89
2022-10-17T19:25:48.929Z,91.25
2022-10-17T19:28:16.958Z,89.66
2022-10-17T19:30:44.918Z,89.04
2022-10-17T19:33:13.003Z,90.07
2022-10-17T19:35:41.302Z,89.67
2022-10-17T19:38:09.181Z,89.15
2022-10-17T19:40:47.703Z,89.08
2022-10-17T19:43:17.279Z,89.86
2022-10-17T19:46:01.533Z,89.08
2022-10-17T19:48:35.435Z,88.74
2022-10-17T19:51:04.135Z,88.79
2022-10-17T19:53:31.270Z,89.77
2022-10-17T19:56:03.627Z,88.60
2022-10-17T19:58:32.810Z,88.35
2022-10-17T20:01:05.612Z,88.02
2022-10-17T20:03:33.014Z,88.09
2022-10-17T20:06:01.141Z,87.74
2022-10-17T20:08:54.558Z,87.74
2022-10-17T20:11:30.883Z,87.77
2022-10-17T20:14:00.160Z,87.62
2022-10-17T20:16:31.027Z,87.93
2022-10-17T20:19:04.530Z,87.79
2022-10-17T20:21:35.150Z,87.77
2022-10-17T20:24:05.375Z,88.04
2022-10-17T20:26:39.025Z,87.81
2022-10-17T20:29:17.535Z,88.07
2022-10-17T20:31:46.308Z,87.85
2022-10-17T20:34:15.886Z,87.32
2022-10-17T20:36:43.325Z,87.55
2022-10-17T20:39:13.581Z,87.57
2022-10-17T20:41:43.903Z,87.55
2022-10-17T20:44:16.988Z,87.40
2022-10-17T20:47:00.674Z,87.33
2022-10-17T20:49:44.059Z,87.29
2022-10-17T20:52:11.127Z,87.72
2022-10-17T20:54:39.161Z,87.54
2022-10-17T20:57:07.152Z,87.40
2022-10-17T20:59:36.045Z,87.51
2022-10-17T21:02:29.012Z,87.96
2022-10-17T21:04:56.954Z,88.05
2022-10-17T21:07:29.283Z,87.99
2022-10-17T21:10:00.334Z,88.01
2022-10-17T21:12:49.934Z,87.91
2022-10-17T21:15:47.196Z,88.33
2022-10-17T21:18:15.429Z,88.67
2022-10-17T21:20:43.180Z,88.38
2022-10-17T21:23:10.938Z,88.30
2022-10-17T21:25:43.030Z,88.29
2022-10-17T21:28:10.979Z,88.04
2022-10-17T21:30:38.951Z,87.98
2022-10-17T21:33:06.970Z,88.25
2022-10-17T21:35:35.023Z,88.05
2022-10-17T21:38:07.001Z,87.87
2022-10-17T21:40:35.067Z,88.05
2022-10-17T21:43:07.981Z,87.97
2022-10-17T21:45:36.120Z,88.50
2022-10-17T21:48:18.328Z,88.20
2022-10-17T21:50:44.969Z,88.23
2022-10-17T21:53:12.979Z,87.92
2022-10-17T21:55:40.994Z,88.25
2022-10-17T21:58:09.003Z,88.06
2022-10-17T22:00:36.975Z,87.93
2022-10-17T22:03:10.893Z,87.89
2022-10-17T22:05:39.041Z,88.56
2022-10-17T22:08:07.333Z,88.36
2022-10-17T22:10:44.380Z,87.93
2022-10-17T22:13:11.242Z,88.33
2022-10-17T22:16:11.260Z,88.12
2022-10-17T22:18:39.274Z,88.44
2022-10-17T22:21:19.638Z,87.99
2022-10-17T22:26:41.570Z,88.36
2022-10-17T22:29:09.617Z,88.03
2022-10-17T22:31:37.783Z,88.93
2022-10-17T22:34:06.433Z,88.66
2022-10-17T22:36:35.805Z,88.42
2022-10-17T22:39:04.135Z,88.20
2022-10-17T22:41:31.129Z,88.64
2022-10-17T22:43:59.135Z,88.25
2022-10-17T22:46:27.278Z,87.94
2022-10-17T22:48:54.960Z,87.85
2022-10-17T22:53:51.054Z,88.13
2022-10-17T22:56:20.714Z,88.02
2022-10-17T22:58:49.360Z,87.96
2022-10-17T23:01:41.209Z,89.05
2022-10-17T23:04:38.387Z,88.40
2022-10-17T23:07:11.121Z,88.66
2022-10-17T23:10:05.413Z,88.54
2022-10-17T23:12:33.144Z,88.19
2022-10-17T23:15:00.982Z,88.08
2022-10-17T23:17:29.010Z,88.11
2022-10-17T23:20:01.964Z,87.97
2022-10-17T23:25:27.223Z,88.26
2022-10-17T23:27:55.360Z,88.16
2022-10-17T23:30:27.149Z,88.13
2022-10-17T23:33:04.094Z,88.40
2022-10-17T23:35:31.497Z,88.93
2022-10-17T23:37:59.036Z,88.58
2022-10-17T23:40:27.063Z,88.49
2022-10-17T23:42:55.021Z,88.15
2022-10-17T23:45:23.068Z,89.07
2022-10-17T23:47:51.004Z,88.44
2022-10-17T23:50:45.088Z,88.56
2022-10-17T23:53:17.950Z,89.12
2022-10-17T23:55:45.154Z,88.78
2022-10-17T23:58:12.974Z,88.58
